createdAt,value
2018-12-27T00:02:21.087Z,18.67
2018-12-27T00:04:49.448Z,18.66
2018-12-27T00:07:17.197Z,18.65
2018-12-27T00:09:45.406Z,18.65
2018-12-27T00:12:13.513Z,18.64
2018-12-27T00:14:41.243Z,18.64
2018-12-27T00:17:08.955Z,18.64
2018-12-27T00:19:36.687Z,18.64
2018-12-27T00:22:04.416Z,18.63
2018-12-27T00:24:32.139Z,18.63
2018-12-27T00:26:59.942Z,18.64
2018-12-27T00:29:27.676Z,18.63
2018-12-27T00:31:55.560Z,18.63
2018-12-27T00:34:23.530Z,18.64
2018-12-27T00:36:51.439Z,18.64
2018-12-27T00:39:20.671Z,18.63
2018-12-27T00:41:48.615Z,18.63
2018-12-27T00:44:16.804Z,18.64
2018-12-27T00:46:44.678Z,18.64
2018-12-27T00:49:12.578Z,18.64
2018-12-27T00:51:40.504Z,18.64
2018-12-27T00:54:08.430Z,18.64
2018-12-27T00:56:36.383Z,18.63
2018-12-27T00:59:04.319Z,18.63
2018-12-27T01:01:32.277Z,18.63
2018-12-27T01:04:00.147Z,18.62
2018-12-27T01:06:28.087Z,18.61
2018-12-27T01:08:56.038Z,18.59
2018-12-27T01:11:24.090Z,18.60
2018-12-27T01:13:52.162Z,18.60
2018-12-27T01:16:20.039Z,18.59
2018-12-27T01:18:47.916Z,18.59
2018-12-27T01:21:15.850Z,18.59
2018-12-27T01:23:43.850Z,18.58
2018-12-27T01:26:11.715Z,18.59
2018-12-27T01:28:39.622Z,18.60
2018-12-27T01:31:07.515Z,18.61
2018-12-27T01:33:35.417Z,18.62
2018-12-27T01:36:03.329Z,18.62
2018-12-27T01:38:31.210Z,18.63
2018-12-27T01:40:59.120Z,18.65
2018-12-27T01:43:28.401Z,18.64
2018-12-27T01:45:56.283Z,18.64
2018-12-27T01:48:24.156Z,18.65
2018-12-27T01:50:52.083Z,18.68
2018-12-27T01:53:19.984Z,18.66
2018-12-27T01:55:47.956Z,18.63
2018-12-27T01:58:15.860Z,18.64
2018-12-27T02:00:43.741Z,18.61
2018-12-27T02:03:11.693Z,18.62
2018-12-27T02:05:39.642Z,18.62
2018-12-27T02:08:07.561Z,18.61
2018-12-27T02:17:07.244Z,18.62
2018-12-27T02:19:35.218Z,18.61
2018-12-27T02:22:03.183Z,18.62
2018-12-27T02:24:31.093Z,18.62
2018-12-27T02:26:59.132Z,18.62
2018-12-27T02:29:27.111Z,18.62
2018-12-27T02:31:55.021Z,18.62
2018-12-27T02:34:22.920Z,18.63
2018-12-27T02:36:50.895Z,18.63
2018-12-27T02:39:18.904Z,18.64
2018-12-27T02:41:46.942Z,18.63
2018-12-27T02:44:15.400Z,18.63
2018-12-27T02:46:43.377Z,18.63
2018-12-27T02:49:11.343Z,18.67
2018-12-27T02:51:39.232Z,18.65
2018-12-27T02:54:07.171Z,18.64
2018-12-27T02:56:35.058Z,18.63
2018-12-27T02:59:02.956Z,18.62
2018-12-27T03:01:30.850Z,18.62
2018-12-27T03:03:59.066Z,18.61
2018-12-27T03:06:27.234Z,18.62
2018-12-27T03:08:55.121Z,18.62
2018-12-27T03:11:23.181Z,18.60
2018-12-27T03:13:51.191Z,18.59
2018-12-27T03:16:19.083Z,18.60
2018-12-27T03:18:46.959Z,18.61
2018-12-27T03:21:14.916Z,18.61
2018-12-27T03:23:42.835Z,18.64
2018-12-27T03:26:10.855Z,18.66
2018-12-27T03:28:39.082Z,18.67
2018-12-27T03:31:06.959Z,18.67
2018-12-27T03:33:35.097Z,18.68
2018-12-27T03:36:02.982Z,18.69
2018-12-27T03:38:30.940Z,18.69
2018-12-27T03:40:59.305Z,18.70
2018-12-27T03:43:27.233Z,18.75
2018-12-27T03:45:55.419Z,18.73
2018-12-27T03:48:23.322Z,18.74
2018-12-27T03:50:51.315Z,18.74
2018-12-27T03:53:19.218Z,18.72
2018-12-27T03:55:47.175Z,18.82
2018-12-27T03:58:15.078Z,18.76
2018-12-27T04:00:42.955Z,18.73
2018-12-27T04:03:10.845Z,18.70
2018-12-27T04:05:38.784Z,18.68
2018-12-27T04:08:06.686Z,18.68
2018-12-27T04:10:34.661Z,18.68
2018-12-27T04:13:02.570Z,18.67
2018-12-27T04:15:30.439Z,18.65
2018-12-27T04:17:58.459Z,18.63
2018-12-27T04:20:26.232Z,18.64
2018-12-27T04:22:54.498Z,18.62
2018-12-27T04:25:22.235Z,18.61
2018-12-27T04:27:49.967Z,18.60
2018-12-27T04:30:17.735Z,18.60
2018-12-27T04:32:45.508Z,18.61
2018-12-27T04:35:13.235Z,18.61
2018-12-27T04:37:40.975Z,18.60
2018-12-27T04:40:11.803Z,18.59
2018-12-27T04:42:39.606Z,18.58
2018-12-27T04:45:07.322Z,18.58
2018-12-27T04:47:35.059Z,18.58
2018-12-27T04:50:02.923Z,18.58
2018-12-27T04:52:30.796Z,18.60
2018-12-27T04:54:58.512Z,18.65
2018-12-27T04:57:26.568Z,18.66
2018-12-27T04:59:54.388Z,18.68
2018-12-27T05:02:22.091Z,18.70
2018-12-27T05:04:49.912Z,18.73
2018-12-27T05:07:17.660Z,18.73
2018-12-27T05:09:45.441Z,18.71
2018-12-27T05:12:13.174Z,18.70
2018-12-27T05:14:40.880Z,18.72
2018-12-27T05:17:08.863Z,18.70
2018-12-27T05:19:36.679Z,18.70
2018-12-27T05:22:04.482Z,18.70
2018-12-27T05:24:32.325Z,18.70
2018-12-27T05:27:00.063Z,18.68
2018-12-27T05:29:27.783Z,18.68
2018-12-27T05:31:55.627Z,18.67
2018-12-27T05:34:26.271Z,18.67
2018-12-27T05:36:53.072Z,18.54
2018-12-27T05:39:20.834Z,18.66
2018-12-27T05:41:48.787Z,18.66
2018-12-27T05:44:16.530Z,18.66
2018-12-27T05:46:44.246Z,18.65
2018-12-27T05:49:12.044Z,18.65
2018-12-27T05:51:39.759Z,18.63
2018-12-27T05:54:07.476Z,18.64
2018-12-27T05:56:35.182Z,18.63
2018-12-27T05:59:02.909Z,18.62
2018-12-27T06:01:30.707Z,18.61
2018-12-27T06:03:58.430Z,18.60
2018-12-27T06:06:26.187Z,18.60
2018-12-27T06:08:53.903Z,18.63
2018-12-27T06:11:21.703Z,18.65
2018-12-27T06:13:50.046Z,18.66
2018-12-27T06:16:17.975Z,18.68
2018-12-27T06:18:45.675Z,18.69
2018-12-27T06:21:14.012Z,18.71
2018-12-27T06:23:41.752Z,18.70
2018-12-27T06:26:09.635Z,18.73
2018-12-27T06:28:37.427Z,18.91
2018-12-27T06:31:05.158Z,18.87
2018-12-27T06:33:32.933Z,18.90
2018-12-27T06:36:00.687Z,18.76
2018-12-27T06:38:28.460Z,18.22
2018-12-27T06:40:56.174Z,17.94
2018-12-27T06:43:23.985Z,17.81
2018-12-27T06:45:51.931Z,18.01
2018-12-27T06:48:19.712Z,18.10
2018-12-27T06:50:47.409Z,17.98
2018-12-27T06:53:15.144Z,17.71
2018-12-27T06:55:43.196Z,17.68
2018-12-27T06:58:10.926Z,17.65
2018-12-27T07:00:38.643Z,17.52
2018-12-27T07:03:06.355Z,17.47
2018-12-27T07:05:34.186Z,17.42
2018-12-27T07:08:02.026Z,17.34
2018-12-27T07:10:29.829Z,17.24
2018-12-27T07:12:57.847Z,17.23
2018-12-27T07:15:25.642Z,17.17
2018-12-27T07:17:53.383Z,17.03
2018-12-27T07:20:21.108Z,17.05
2018-12-27T07:22:49.023Z,16.92
2018-12-27T07:25:16.883Z,16.98
2018-12-27T07:27:44.615Z,16.99
2018-12-27T07:30:12.337Z,16.92
2018-12-27T07:32:40.248Z,16.91
2018-12-27T07:35:08.020Z,16.89
2018-12-27T07:37:35.735Z,16.67
2018-12-27T07:40:04.155Z,17.15
2018-12-27T07:42:31.914Z,17.49
2018-12-27T07:44:59.636Z,17.85
2018-12-27T07:47:27.358Z,18.02
2018-12-27T07:49:55.161Z,18.12
2018-12-27T07:52:25.572Z,18.20
2018-12-27T07:54:52.803Z,18.23
2018-12-27T07:57:20.535Z,18.23
2018-12-27T07:59:48.276Z,18.23
2018-12-27T08:02:15.982Z,18.26
2018-12-27T08:04:43.719Z,18.27
2018-12-27T08:07:11.478Z,18.29
2018-12-27T08:09:39.327Z,18.31
2018-12-27T08:12:07.036Z,18.33
2018-12-27T08:14:34.796Z,18.35
2018-12-27T08:17:02.772Z,18.36
2018-12-27T08:19:30.607Z,18.37
2018-12-27T08:21:58.362Z,18.39
2018-12-27T08:24:26.096Z,18.42
2018-12-27T08:26:53.843Z,18.43
2018-12-27T08:29:21.910Z,18.45
2018-12-27T08:31:49.733Z,18.47
2018-12-27T08:34:17.534Z,18.46
2018-12-27T08:36:45.279Z,18.46
2018-12-27T08:39:12.975Z,18.48
2018-12-27T08:41:41.968Z,18.47
2018-12-27T08:44:09.675Z,18.48
2018-12-27T08:46:37.407Z,18.49
2018-12-27T08:49:05.109Z,18.48
2018-12-27T08:51:33.241Z,18.48
2018-12-27T08:54:01.030Z,18.50
2018-12-27T08:56:28.773Z,18.50
2018-12-27T08:58:56.573Z,18.50
2018-12-27T09:01:24.359Z,18.49
2018-12-27T09:03:52.119Z,18.49
2018-12-27T09:06:19.975Z,18.48
2018-12-27T09:08:47.708Z,18.49
2018-12-27T09:11:15.616Z,18.49
2018-12-27T09:13:43.434Z,18.48
2018-12-27T09:16:11.158Z,18.49
2018-12-27T09:18:38.887Z,18.46
2018-12-27T09:21:06.675Z,18.38
2018-12-27T09:23:34.406Z,18.30
2018-12-27T09:26:02.174Z,18.32
2018-12-27T09:28:29.884Z,18.38
2018-12-27T09:30:57.695Z,18.41
2018-12-27T09:33:25.425Z,18.30
2018-12-27T09:35:53.225Z,18.41
2018-12-27T09:38:20.944Z,18.40
2018-12-27T09:40:48.812Z,18.38
2018-12-27T09:43:16.551Z,18.38
2018-12-27T09:45:44.346Z,18.39
2018-12-27T09:48:12.089Z,18.38
2018-12-27T09:50:39.914Z,18.39
2018-12-27T09:53:07.778Z,18.39
2018-12-27T09:55:37.271Z,18.39
2018-12-27T09:58:05.403Z,18.40
2018-12-27T10:00:33.915Z,18.39
2018-12-27T10:03:01.731Z,18.39
2018-12-27T10:05:41.629Z,18.39
2018-12-27T10:08:11.104Z,18.40
2018-12-27T10:10:39.482Z,18.40
2018-12-27T10:13:10.494Z,18.40
2018-12-27T10:15:38.204Z,18.38
2018-12-27T10:18:06.104Z,18.36
2018-12-27T10:20:34.164Z,18.35
2018-12-27T10:23:02.152Z,18.35
2018-12-27T10:25:29.868Z,18.35
2018-12-27T10:27:57.646Z,18.37
2018-12-27T10:30:25.422Z,18.38
2018-12-27T10:32:53.147Z,18.37
2018-12-27T10:35:21.438Z,18.39
2018-12-27T10:37:49.208Z,18.37
2018-12-27T10:40:16.939Z,18.27
2018-12-27T10:42:44.711Z,18.39
2018-12-27T10:45:13.688Z,18.42
2018-12-27T10:47:41.386Z,18.42
2018-12-27T10:50:09.418Z,18.43
2018-12-27T10:52:37.470Z,18.31
2018-12-27T10:55:05.388Z,18.43
2018-12-27T10:57:34.862Z,18.43
2018-12-27T11:00:02.759Z,18.44
2018-12-27T11:02:30.480Z,18.43
2018-12-27T11:04:58.194Z,18.44
2018-12-27T11:07:25.964Z,18.46
2018-12-27T11:09:53.782Z,18.47
2018-12-27T11:12:21.788Z,18.47
2018-12-27T11:14:49.574Z,18.47
2018-12-27T11:17:17.280Z,18.46
2018-12-27T11:19:44.994Z,18.47
2018-12-27T11:22:12.764Z,18.46
2018-12-27T11:24:40.479Z,18.51
2018-12-27T11:27:09.490Z,18.53
2018-12-27T11:29:37.343Z,18.50
2018-12-27T11:32:05.163Z,18.49
2018-12-27T11:34:32.988Z,18.48
2018-12-27T11:37:00.747Z,18.47
2018-12-27T11:39:29.613Z,18.46
2018-12-27T11:41:57.331Z,18.47
2018-12-27T11:44:25.147Z,18.46
2018-12-27T11:46:52.894Z,18.44
2018-12-27T11:49:20.707Z,18.44
2018-12-27T11:51:48.430Z,18.45
2018-12-27T11:54:16.154Z,18.42
2018-12-27T11:56:43.890Z,18.41
2018-12-27T11:59:11.594Z,18.43
2018-12-27T12:01:39.331Z,18.44
2018-12-27T12:04:07.070Z,18.44
2018-12-27T12:06:36.636Z,18.44
2018-12-27T12:09:06.103Z,18.44
2018-12-27T12:11:34.119Z,18.43
2018-12-27T12:14:01.919Z,18.43
2018-12-27T12:16:29.627Z,18.41
2018-12-27T12:18:57.331Z,18.42
2018-12-27T12:21:25.075Z,18.40
2018-12-27T12:23:52.866Z,18.41
2018-12-27T12:26:20.590Z,18.41
2018-12-27T12:28:48.321Z,18.40
2018-12-27T12:31:16.051Z,18.41
2018-12-27T12:33:43.772Z,18.39
2018-12-27T12:36:11.774Z,18.41
2018-12-27T12:38:39.527Z,18.41
2018-12-27T12:41:08.578Z,18.41
2018-12-27T12:43:38.000Z,18.40
2018-12-27T12:46:05.711Z,18.40
2018-12-27T12:48:33.433Z,18.40
2018-12-27T12:51:01.151Z,18.40
2018-12-27T12:53:28.842Z,18.39
2018-12-27T12:55:56.563Z,18.39
2018-12-27T12:58:24.283Z,18.39
2018-12-27T13:00:51.990Z,18.39
2018-12-27T13:03:19.959Z,18.38
2018-12-27T13:05:47.684Z,18.39
2018-12-27T13:08:15.390Z,18.38
2018-12-27T13:10:43.111Z,18.39
2018-12-27T13:13:10.861Z,18.38
2018-12-27T13:15:38.611Z,18.38
2018-12-27T13:18:06.322Z,18.39
2018-12-27T13:20:34.288Z,18.38
2018-12-27T13:23:02.234Z,18.38
2018-12-27T13:25:30.015Z,18.38
2018-12-27T13:27:57.759Z,18.38
2018-12-27T13:30:25.507Z,18.37
2018-12-27T13:32:53.254Z,18.37
2018-12-27T13:35:20.949Z,18.38
2018-12-27T13:37:48.662Z,18.40
2018-12-27T13:40:16.392Z,18.40
2018-12-27T13:42:44.166Z,18.38
2018-12-27T13:45:11.882Z,18.38
2018-12-27T13:47:39.603Z,18.37
2018-12-27T13:50:07.358Z,18.38
2018-12-27T13:52:35.116Z,18.37
2018-12-27T13:55:02.835Z,18.37
2018-12-27T13:57:30.591Z,18.36
2018-12-27T13:59:58.321Z,18.38
2018-12-27T14:02:26.042Z,18.39
2018-12-27T14:04:56.121Z,18.38
2018-12-27T14:07:23.908Z,18.37
2018-12-27T14:09:51.638Z,18.38
2018-12-27T14:12:19.360Z,18.38
2018-12-27T14:14:50.100Z,18.38
2018-12-27T14:17:17.822Z,18.27
2018-12-27T14:19:45.532Z,18.39
2018-12-27T14:22:13.254Z,18.38
2018-12-27T14:24:41.032Z,18.37
2018-12-27T14:27:08.794Z,18.36
2018-12-27T14:29:36.806Z,18.36
2018-12-27T14:32:04.534Z,18.36
2018-12-27T14:34:32.555Z,18.36
2018-12-27T14:37:00.284Z,18.36
2018-12-27T14:39:28.119Z,18.35
2018-12-27T14:41:55.902Z,18.35
2018-12-27T14:44:23.635Z,18.34
2018-12-27T14:46:51.356Z,18.35
2018-12-27T14:49:19.167Z,18.35
2018-12-27T14:51:46.881Z,18.35
2018-12-27T14:54:14.610Z,18.35
2018-12-27T14:56:42.315Z,18.34
2018-12-27T14:59:10.155Z,18.10
2018-12-27T15:05:00.176Z,18.35
2018-12-27T15:07:27.929Z,18.35
2018-12-27T15:09:55.686Z,18.35
2018-12-27T15:12:23.404Z,18.35
2018-12-27T15:14:51.175Z,18.35
2018-12-27T15:17:18.903Z,18.35
2018-12-27T15:19:46.741Z,18.35
2018-12-27T15:22:14.434Z,18.36
2018-12-27T15:24:42.287Z,18.35
2018-12-27T15:27:10.039Z,18.35
2018-12-27T15:29:38.038Z,18.35
2018-12-27T15:32:05.839Z,18.34
2018-12-27T15:34:33.574Z,18.35
2018-12-27T15:37:01.270Z,18.35
2018-12-27T15:39:28.984Z,18.35
2018-12-27T15:41:56.728Z,18.36
2018-12-27T15:44:24.455Z,18.37
2018-12-27T15:46:52.239Z,18.37
2018-12-27T15:49:19.966Z,18.37
2018-12-27T15:51:47.691Z,18.36
2018-12-27T15:54:16.094Z,18.37
2018-12-27T15:56:43.810Z,18.38
2018-12-27T15:59:11.576Z,18.36
2018-12-27T16:01:39.302Z,18.37
2018-12-27T16:04:07.026Z,18.37
2018-12-27T16:06:34.870Z,18.37
2018-12-27T16:09:04.348Z,18.36
2018-12-27T16:11:32.047Z,18.36
2018-12-27T16:13:59.777Z,18.36
2018-12-27T16:16:27.582Z,18.37
2018-12-27T16:18:55.356Z,18.36
2018-12-27T16:21:23.378Z,18.36
2018-12-27T16:23:51.083Z,18.35
2018-12-27T16:26:18.829Z,18.35
2018-12-27T16:28:46.559Z,18.35
2018-12-27T16:31:14.390Z,18.35
2018-12-27T16:33:42.103Z,18.35
2018-12-27T16:36:09.892Z,18.35
2018-12-27T16:38:37.615Z,18.35
2018-12-27T16:41:05.613Z,18.34
2018-12-27T16:43:33.355Z,18.34
2018-12-27T16:46:01.078Z,18.34
2018-12-27T16:48:28.811Z,18.35
2018-12-27T16:50:56.595Z,18.34
2018-12-27T16:53:24.321Z,18.35
2018-12-27T16:55:52.099Z,18.22
2018-12-27T16:58:19.822Z,18.34
2018-12-27T17:00:47.986Z,18.34
2018-12-27T17:03:15.727Z,18.34
2018-12-27T17:05:43.503Z,18.33
2018-12-27T17:08:11.306Z,18.34
2018-12-27T17:10:39.332Z,18.34
2018-12-27T17:13:07.228Z,18.32
2018-12-27T17:15:35.019Z,18.32
2018-12-27T17:18:02.812Z,18.33
2018-12-27T17:20:30.635Z,18.34
2018-12-27T17:22:58.450Z,18.33
2018-12-27T17:25:26.183Z,18.34
2018-12-27T17:27:53.933Z,18.33
2018-12-27T17:30:23.228Z,18.34
2018-12-27T17:32:50.940Z,18.33
2018-12-27T17:35:18.691Z,18.33
2018-12-27T17:37:46.442Z,18.33
2018-12-27T17:40:14.239Z,18.32
2018-12-27T17:42:41.966Z,18.34
2018-12-27T17:45:10.672Z,18.33
2018-12-27T17:47:38.416Z,18.32
2018-12-27T17:50:06.234Z,18.32
2018-12-27T17:52:33.954Z,18.33
2018-12-27T17:55:01.746Z,18.33
2018-12-27T17:57:29.474Z,18.32
2018-12-27T17:59:57.220Z,18.33
2018-12-27T18:02:25.036Z,18.33
2018-12-27T18:04:52.748Z,18.34
2018-12-27T18:07:20.483Z,18.33
2018-12-27T18:09:48.327Z,18.32
2018-12-27T18:12:16.086Z,18.30
2018-12-27T18:14:43.837Z,18.30
2018-12-27T18:17:11.556Z,18.29
2018-12-27T18:19:39.381Z,18.29
2018-12-27T18:22:07.197Z,18.27
2018-12-27T18:24:34.889Z,18.25
2018-12-27T18:27:02.743Z,18.26
2018-12-27T18:29:30.521Z,18.25
2018-12-27T18:31:58.385Z,18.25
2018-12-27T18:34:26.105Z,18.27
2018-12-27T18:36:53.853Z,18.28
2018-12-27T18:39:21.634Z,18.28
2018-12-27T18:41:49.392Z,18.28
2018-12-27T18:44:17.086Z,18.26
2018-12-27T18:46:45.535Z,18.26
2018-12-27T18:49:13.393Z,18.26
2018-12-27T18:51:41.348Z,18.27
2018-12-27T18:54:33.378Z,18.28
2018-12-27T18:57:01.150Z,18.28
2018-12-27T18:59:28.910Z,18.28
2018-12-27T19:01:56.677Z,18.29
2018-12-27T19:04:24.416Z,18.29
2018-12-27T19:06:52.707Z,18.28
2018-12-27T19:09:20.665Z,18.29
2018-12-27T19:12:06.872Z,18.28
2018-12-27T19:14:35.450Z,18.29
2018-12-27T19:17:07.755Z,18.28
2018-12-27T19:19:32.967Z,18.29
2018-12-27T19:22:03.548Z,18.28
2018-12-27T19:24:31.687Z,18.29
2018-12-27T19:27:00.236Z,18.30
2018-12-27T19:29:28.482Z,18.28
2018-12-27T19:31:56.553Z,18.26
2018-12-27T19:34:24.923Z,18.29
2018-12-27T19:36:55.649Z,18.29
2018-12-27T19:39:25.853Z,18.28
2018-12-27T19:41:53.537Z,18.28
2018-12-27T19:44:21.932Z,18.28
2018-12-27T19:46:50.290Z,18.28
2018-12-27T19:49:18.705Z,18.28
2018-12-27T19:51:46.897Z,18.28
2018-12-27T19:54:15.227Z,18.28
2018-12-27T19:56:49.219Z,18.28
2018-12-27T19:59:20.175Z,18.28
2018-12-27T20:01:48.279Z,18.28
2018-12-27T20:04:16.438Z,18.29
2018-12-27T20:06:45.172Z,18.28
2018-12-27T20:09:13.364Z,18.28
2018-12-27T20:11:43.840Z,18.29
2018-12-27T20:14:11.907Z,18.28
2018-12-27T20:16:41.025Z,18.28
2018-12-27T20:19:08.990Z,18.28
2018-12-27T20:21:40.126Z,18.28
2018-12-27T20:24:08.141Z,18.27
2018-12-27T20:26:42.355Z,18.27
2018-12-27T20:29:11.739Z,18.15
2018-12-27T20:31:40.056Z,18.27
2018-12-27T20:34:08.158Z,18.27
2018-12-27T20:36:36.478Z,18.27
2018-12-27T20:39:07.254Z,18.27
2018-12-27T20:41:39.996Z,18.27
2018-12-27T20:44:10.569Z,18.27
2018-12-27T20:46:41.305Z,18.26
2018-12-27T20:49:09.888Z,18.25
2018-12-27T20:51:37.997Z,18.25
2018-12-27T20:54:06.112Z,18.25
2018-12-27T20:56:34.302Z,18.25
2018-12-27T20:59:04.926Z,18.24
2018-12-27T21:01:37.296Z,18.24
2018-12-27T21:04:05.023Z,18.25
2018-12-27T21:06:33.780Z,18.34
2018-12-27T21:09:01.763Z,18.43
2018-12-27T21:11:29.476Z,18.46
2018-12-27T21:13:57.392Z,18.50
2018-12-27T21:16:25.253Z,18.51
2018-12-27T21:18:53.322Z,18.50
2018-12-27T21:21:21.207Z,18.55
2018-12-27T21:23:49.995Z,18.61
2018-12-27T21:26:17.830Z,18.66
2018-12-27T21:28:45.597Z,18.64
2018-12-27T21:31:13.471Z,18.69
2018-12-27T21:33:41.231Z,18.72
2018-12-27T21:36:09.010Z,18.73
2018-12-27T21:38:41.607Z,18.74
2018-12-27T21:41:07.702Z,18.76
2018-12-27T21:43:35.455Z,18.78
2018-12-27T21:46:03.427Z,18.79
2018-12-27T21:48:31.146Z,18.86
2018-12-27T21:50:59.142Z,18.79
2018-12-27T21:53:26.934Z,18.82
2018-12-27T21:55:54.938Z,18.85
2018-12-27T21:58:22.693Z,18.92
2018-12-27T22:00:50.410Z,18.88
2018-12-27T22:03:18.150Z,18.90
2018-12-27T22:05:46.135Z,18.79
2018-12-27T22:08:13.946Z,18.66
2018-12-27T22:10:41.986Z,18.65
2018-12-27T22:13:09.795Z,18.62
2018-12-27T22:15:37.955Z,18.59
2018-12-27T22:18:05.683Z,18.58
2018-12-27T22:20:33.419Z,18.58
2018-12-27T22:23:01.160Z,18.68
2018-12-27T22:25:29.135Z,18.73
2018-12-27T22:27:57.942Z,18.74
2018-12-27T22:30:25.831Z,18.75
2018-12-27T22:32:53.643Z,18.75
2018-12-27T22:35:21.459Z,18.75
2018-12-27T22:37:49.286Z,18.69
2018-12-27T22:40:17.068Z,18.65
2018-12-27T22:42:44.842Z,18.67
2018-12-27T22:45:12.541Z,18.67
2018-12-27T22:47:40.263Z,18.69
2018-12-27T22:50:08.368Z,18.61
2018-12-27T22:52:36.074Z,18.66
2018-12-27T22:55:03.959Z,18.68
2018-12-27T22:57:31.687Z,18.68
2018-12-27T22:59:59.422Z,18.69
2018-12-27T23:02:27.236Z,18.67
2018-12-27T23:04:54.983Z,18.70
2018-12-27T23:07:25.150Z,18.58
2018-12-27T23:09:52.272Z,18.69
2018-12-27T23:12:20.004Z,18.66
2018-12-27T23:14:47.719Z,18.68
2018-12-27T23:17:15.451Z,18.70
2018-12-27T23:19:43.168Z,18.70
2018-12-27T23:22:10.879Z,18.67
2018-12-27T23:24:38.590Z,18.69
2018-12-27T23:27:06.643Z,18.59
2018-12-27T23:29:34.366Z,18.70
2018-12-27T23:32:02.095Z,18.72
2018-12-27T23:34:29.802Z,18.70
2018-12-27T23:36:57.675Z,18.69
2018-12-27T23:39:25.378Z,18.69
2018-12-27T23:41:53.106Z,18.69
2018-12-27T23:44:20.844Z,18.69
2018-12-27T23:46:48.583Z,18.70
2018-12-27T23:49:16.326Z,18.72
2018-12-27T23:51:45.539Z,18.72
2018-12-27T23:54:13.243Z,18.70
2018-12-27T23:56:40.968Z,18.73
2018-12-27T23:59:08.705Z,18.73
